Time;durP1;ratioP1;P1;durP2;ratioP2;P2;SDS_P1;SDS_P2;PMS_P1;PMS_P2;Temp;Humidity;BMP_temperature;BMP_pressure;BME280_temperature;BME280_humidity;BME280_pressure;Samples;Min_cycle;Max_cycle;Signal;HPM_P1;HPM_P2
2023/07/15 00:01:27;;;;;;;0.80;0.80;;;;;;;23.66;59.73;99961.03;4403728;32;34102;-85
2023/07/15 00:03:56;;;;;;;2.17;1.75;;;;;;;23.86;58.96;99962.66;4388025;32;33311;-85
2023/07/15 00:06:24;;;;;;;0.60;0.60;;;;;;;23.77;59.29;99948.19;4400732;32;32068;-85
2023/07/15 00:08:52;;;;;;;1.67;1.52;;;;;;;23.77;59.25;99958.97;4401020;32;33106;-85
2023/07/15 00:11:32;;;;;;;0.85;0.50;;;;;;;23.64;59.65;99953.09;4387227;32;34936;-85
2023/07/15 00:14:01;;;;;;;0.22;0.20;;;;;;;23.60;59.93;99950.81;4388305;32;34143;-85
2023/07/15 00:16:30;;;;;;;1.90;0.55;;;;;;;23.57;59.47;99949.25;4399968;32;33698;-85
2023/07/15 00:18:58;;;;;;;1.17;0.60;;;;;;;23.48;59.98;99953.66;4400173;32;33830;-85
2023/07/15 00:21:30;;;;;;;2.37;0.95;;;;;;;23.57;59.60;99951.94;4413752;32;33937;-85
2023/07/15 00:24:00;;;;;;;0.60;0.60;;;;;;;23.64;59.28;99950.41;4400719;32;34531;-85
2023/07/15 00:26:32;;;;;;;3.15;1.23;;;;;;;23.61;59.57;99953.34;4386030;32;32095;-85
2023/07/15 00:29:01;;;;;;;;;;;;;;;23.62;59.78;99957.75;4402853;32;33335;-84
2023/07/15 00:31:29;;;;;;;0.88;0.88;;;;;;;23.59;60.00;99955.31;4388934;32;33318;-85
2023/07/15 00:33:57;;;;;;;1.67;0.98;;;;;;;23.41;60.46;99951.72;4400427;32;32748;-85
2023/07/15 00:36:26;;;;;;;0.43;0.43;;;;;;;23.37;60.64;99950.31;4398669;32;32618;-85
2023/07/15 00:38:54;;;;;;;1.65;0.95;;;;;;;23.47;60.35;99951.12;4403093;32;34047;-85
2023/07/15 00:41:26;;;;;;;2.45;0.77;;;;;;;23.34;60.66;99945.19;4388988;32;33632;-85
2023/07/15 00:46:22;;;;;;;0.65;0.65;;;;;;;23.24;60.95;99946.06;4416319;32;33406;-85
2023/07/15 00:48:57;;;;;;;9.43;0.68;;;;;;;23.24;60.83;99939.81;4415140;32;34646;-85
2023/07/15 00:51:27;;;;;;;2.03;1.23;;;;;;;23.34;60.40;99940.66;4414427;32;34396;-85
2023/07/15 00:53:58;;;;;;;1.42;1.10;;;;;;;23.24;60.66;99937.97;4401764;32;35692;-85
2023/07/15 00:56:26;;;;;;;2.20;1.15;;;;;;;23.18;60.90;99933.19;4401109;32;33541;-85
2023/07/15 00:58:54;;;;;;;0.65;0.65;;;;;;;23.23;60.71;99938.97;4404612;32;34575;-84
2023/07/15 01:01:23;;;;;;;10.38;1.73;;;;;;;23.19;60.96;99939.41;4423473;32;33807;-85
2023/07/15 01:03:51;;;;;;;0.85;0.57;;;;;;;23.30;60.38;99933.00;4403752;32;34988;-85
2023/07/15 01:06:18;;;;;;;0.60;0.60;;;;;;;23.19;60.88;99931.31;4409589;32;33654;-85
2023/07/15 01:08:46;;;;;;;0.30;0.30;;;;;;;23.03;61.42;99931.94;4406618;32;33779;-84
2023/07/15 01:11:14;;;;;;;1.12;0.85;;;;;;;23.10;60.89;99921.41;4408255;32;33870;-84
2023/07/15 01:13:42;;;;;;;0.95;0.75;;;;;;;23.06;61.12;99926.22;4400369;32;32680;-84
2023/07/15 01:16:09;;;;;;;2.22;0.50;;;;;;;23.06;61.08;99926.22;4414826;32;33102;-84
2023/07/15 01:18:39;;;;;;;1.15;1.05;;;;;;;23.02;61.09;99924.81;4409511;32;32092;-84
2023/07/15 01:21:06;;;;;;;0.75;0.52;;;;;;;22.94;61.31;99922.00;4408966;32;33856;-84
2023/07/15 01:23:34;;;;;;;20.23;2.10;;;;;;;22.91;61.21;99916.91;4421480;32;33858;-84
2023/07/15 01:26:02;;;;;;;0.75;0.75;;;;;;;22.91;61.34;99916.91;4408982;32;32639;-85
2023/07/15 01:28:29;;;;;;;0.40;0.40;;;;;;;22.81;61.69;99924.97;4408693;32;33295;-84
2023/07/15 01:30:58;;;;;;;0.88;0.85;;;;;;;22.81;61.74;99926.81;4408352;32;34768;-85
2023/07/15 01:33:26;;;;;;;0.28;0.28;;;;;;;22.79;61.65;99920.69;4396025;32;32541;-85
2023/07/15 01:35:54;;;;;;;1.77;1.45;;;;;;;22.82;61.73;99923.13;4408240;32;32236;-85
2023/07/15 01:38:23;;;;;;;1.02;0.65;;;;;;;22.77;61.91;99923.53;4420758;32;33978;-84
2023/07/15 01:40:51;;;;;;;1.62;0.65;;;;;;;22.99;60.86;99925.13;4429153;32;33555;-84
2023/07/15 01:43:19;;;;;;;0.60;0.60;;;;;;;23.02;60.44;99929.34;4427939;32;34237;-84
2023/07/15 01:45:46;;;;;;;0.85;0.82;;;;;;;22.69;61.86;99926.09;4396527;32;32538;-85
2023/07/15 01:48:14;;;;;;;5.55;1.42;;;;;;;22.80;61.29;99922.41;4409183;32;33386;-84
2023/07/15 01:50:42;;;;;;;6.05;2.12;;;;;;;22.77;61.27;99925.37;4409267;32;33068;-85
2023/07/15 01:53:10;;;;;;;0.68;0.68;;;;;;;22.79;61.19;99924.25;4409201;32;34233;-84
2023/07/15 01:55:37;;;;;;;1.20;0.77;;;;;;;22.61;61.78;99926.81;4411879;32;33180;-85
2023/07/15 01:58:05;;;;;;;1.12;0.50;;;;;;;22.64;61.83;99926.50;4401771;32;32397;-85
2023/07/15 02:00:33;;;;;;;3.33;1.02;;;;;;;22.64;61.73;99934.56;4427053;32;33681;-85
2023/07/15 02:03:01;;;;;;;0.50;0.50;;;;;;;22.54;62.01;99933.72;4429047;32;34188;-84
2023/07/15 02:05:29;;;;;;;0.68;0.68;;;;;;;22.44;62.45;99936.41;4403061;32;32267;-84
2023/07/15 02:07:58;;;;;;;0.90;0.68;;;;;;;22.50;62.20;99935.00;4415659;32;34078;-84
2023/07/15 02:10:30;;;;;;;0.45;0.43;;;;;;;22.58;62.13;99934.31;4414934;32;33648;-85
2023/07/15 02:12:58;;;;;;;0.55;0.55;;;;;;;22.65;61.85;99935.44;4402119;32;32552;-85
2023/07/15 02:15:25;;;;;;;0.88;0.88;;;;;;;22.56;61.90;99929.06;4428275;32;33549;-85
2023/07/15 02:17:54;;;;;;;1.17;0.85;;;;;;;22.53;62.05;99929.34;4429410;32;34301;-84
2023/07/15 02:20:22;;;;;;;1.08;0.80;;;;;;;22.57;61.78;99930.75;4416861;32;34161;-85
2023/07/15 02:22:50;;;;;;;0.68;0.50;;;;;;;22.61;61.55;99929.50;4405123;32;32560;-85
2023/07/15 02:25:18;;;;;;;1.10;0.88;;;;;;;22.55;61.91;99931.87;4417885;32;34306;-84
2023/07/15 02:27:46;;;;;;;2.65;0.88;;;;;;;22.47;62.32;99932.59;4407054;32;33164;-84
2023/07/15 02:30:13;;;;;;;0.10;0.10;;;;;;;22.41;62.42;99935.84;4404752;32;31789;-85
2023/07/15 02:32:42;;;;;;;0.37;0.37;;;;;;;22.40;62.48;99934.97;4415329;32;32388;-84
2023/07/15 02:35:12;;;;;;;0.10;0.10;;;;;;;22.45;62.25;99934.56;4416325;32;32262;-85
2023/07/15 02:37:41;;;;;;;0.88;0.88;;;;;;;22.53;61.86;99932.03;4417072;32;32062;-84
2023/07/15 02:40:11;;;;;;;0.80;0.80;;;;;;;22.39;62.30;99932.44;4428368;32;34370;-84
2023/07/15 02:42:39;;;;;;;0.43;0.43;;;;;;;22.35;62.57;99931.00;4415138;32;32974;-84
2023/07/15 02:45:09;;;;;;;0.28;0.28;;;;;;;22.23;62.70;99939.22;4411281;32;32437;-84
2023/07/15 02:47:39;;;;;;;1.02;1.00;;;;;;;22.22;62.75;99937.53;4418904;32;33473;-85
2023/07/15 02:50:08;;;;;;;0.75;0.75;;;;;;;22.27;62.45;99944.31;4404566;32;33531;-85
2023/07/15 02:52:37;;;;;;;0.75;0.75;;;;;;;22.08;63.05;99937.88;4406888;32;34048;-85
2023/07/15 02:55:06;;;;;;;0.85;0.77;;;;;;;22.03;63.37;99940.13;4405230;32;34587;-84
2023/07/15 02:57:35;;;;;;;0.20;0.20;;;;;;;22.08;63.23;99945.94;4415698;32;33849;-84
2023/07/15 03:00:15;;;;;;;1.23;0.73;;;;;;;21.94;63.68;99940.94;4417589;32;34375;-84
2023/07/15 03:02:47;;;;;;;0.25;0.25;;;;;;;21.94;63.65;99943.62;4394172;32;32879;-84
2023/07/15 03:05:16;;;;;;;0.40;0.40;;;;;;;22.07;63.07;99938.84;4405763;32;33051;-85
2023/07/15 03:07:46;;;;;;;0.10;0.10;;;;;;;22.06;63.21;99944.38;4415982;32;33828;-84
2023/07/15 03:10:15;;;;;;;2.50;1.33;;;;;;;22.07;63.23;99943.38;4431283;32;33663;-84
2023/07/15 03:12:42;;;;;;;1.17;0.70;;;;;;;22.13;63.02;99942.88;4416494;32;34892;-84
2023/07/15 03:15:10;;;;;;;1.17;1.05;;;;;;;22.01;63.55;99942.09;4404391;32;32042;-84
2023/07/15 03:17:38;;;;;;;0.85;0.40;;;;;;;22.20;62.85;99949.38;4404966;32;34462;-85
2023/07/15 03:20:19;;;;;;;0.40;0.40;;;;;;;22.07;63.34;99944.22;4416069;32;34654;-84
2023/07/15 03:22:49;;;;;;;1.95;1.35;;;;;;;22.05;63.34;99940.81;4431280;32;33738;-84
2023/07/15 03:25:19;;;;;;;0.80;0.70;;;;;;;22.09;63.23;99939.56;4403383;32;31994;-84
2023/07/15 03:27:49;;;;;;;1.20;1.12;;;;;;;22.03;63.41;99941.94;4417361;32;34615;-84
2023/07/15 03:30:17;;;;;;;0.62;0.62;;;;;;;21.94;63.63;99939.09;4417093;32;33659;-84
2023/07/15 03:32:46;;;;;;;0.60;0.60;;;;;;;22.01;63.44;99938.56;4404156;32;33500;-85
2023/07/15 03:35:15;;;;;;;0.32;0.32;;;;;;;21.98;63.50;99940.53;4413409;32;33228;-85
2023/07/15 03:37:44;;;;;;;0.25;0.25;;;;;;;21.94;63.79;99935.56;4428279;32;34667;-84
2023/07/15 03:40:12;;;;;;;0.93;0.77;;;;;;;22.07;63.47;99938.84;4405357;32;33581;-84
2023/07/15 03:42:41;;;;;;;0.40;0.40;;;;;;;22.13;63.43;99943.72;4416313;32;32250;-84
2023/07/15 03:45:09;;;;;;;0.80;0.80;;;;;;;22.27;62.69;99938.94;4416474;32;33228;-84
2023/07/15 03:47:37;;;;;;;0.62;0.62;;;;;;;22.26;63.30;99943.44;4404686;32;32452;-84
2023/07/15 03:50:09;;;;;;;0.30;0.20;;;;;;;22.14;64.07;99949.94;4403385;32;32750;-85
2023/07/15 03:52:37;;;;;;;1.02;0.82;;;;;;;22.14;64.26;99950.78;4415856;32;34145;-84
2023/07/15 03:55:05;;;;;;;0.57;0.57;;;;;;;22.38;63.65;99953.13;4400383;32;32721;-85
2023/07/15 03:57:34;;;;;;;16.83;1.98;;;;;;;22.66;62.65;99951.44;4415759;32;33839;-84
2023/07/15 04:00:06;;;;;;;1.90;1.40;;;;;;;22.78;62.63;99945.91;4409521;32;33974;-84
2023/07/15 04:02:39;;;;;;;1.80;1.33;;;;;;;22.73;63.39;99940.97;4400640;32;35072;-84
2023/07/15 04:05:07;;;;;;;1.08;1.08;;;;;;;22.82;63.38;99939.25;4409638;32;33632;-84
2023/07/15 04:07:35;;;;;;;2.20;1.23;;;;;;;22.90;63.30;99934.91;4410199;32;33967;-85
2023/07/15 04:10:02;;;;;;;0.47;0.47;;;;;;;22.99;63.29;99938.59;4410509;32;33429;-85
2023/07/15 04:12:30;;;;;;;1.33;1.23;;;;;;;23.13;63.10;99932.75;4422242;32;34020;-85
2023/07/15 04:14:58;;;;;;;2.28;1.23;;;;;;;23.35;62.35;99930.72;4406473;32;33116;-84
2023/07/15 04:17:25;;;;;;;1.10;1.10;;;;;;;23.41;62.22;99930.16;4421879;32;34014;-85
2023/07/15 04:19:53;;;;;;;2.08;0.80;;;;;;;23.50;61.63;99937.38;4409531;32;33794;-84
2023/07/15 04:22:20;;;;;;;0.45;0.40;;;;;;;23.53;61.16;99923.56;4404384;32;33210;-85
2023/07/15 04:24:48;;;;;;;0.77;0.77;;;;;;;23.70;60.27;99922.84;4411856;32;34060;-85
2023/07/15 04:27:16;;;;;;;0.75;0.75;;;;;;;23.97;59.43;99921.12;4430103;32;33816;-85
2023/07/15 04:29:43;;;;;;;1.55;0.93;;;;;;;24.08;58.44;99925.50;4408813;32;33868;-84
2023/07/15 04:32:11;;;;;;;0.60;0.60;;;;;;;24.30;57.20;99919.66;4397260;32;33010;-85
2023/07/15 04:34:38;;;;;;;0.25;0.25;;;;;;;24.38;57.34;99925.19;4409777;32;33174;-85
2023/07/15 04:37:06;;;;;;;4.75;0.88;;;;;;;23.92;58.12;99926.13;4423842;32;34607;-84
2023/07/15 04:39:33;;;;;;;1.33;1.15;;;;;;;24.47;56.98;99931.53;4408113;32;32613;-85
2023/07/15 04:42:01;;;;;;;0.55;0.50;;;;;;;24.68;56.35;99936.62;4408915;32;32930;-85
2023/07/15 04:44:30;;;;;;;0.95;0.88;;;;;;;24.94;55.18;99936.69;4397220;32;32065;-85
2023/07/15 04:46:58;;;;;;;2.33;1.30;;;;;;;24.65;55.51;99945.88;4417900;32;33842;-85
2023/07/15 04:49:26;;;;;;;0.75;0.75;;;;;;;25.02;55.09;99944.88;4416351;32;34656;-85
2023/07/15 04:51:54;;;;;;;0.60;0.55;;;;;;;25.13;54.85;99947.34;4428330;32;34733;-85
2023/07/15 04:54:21;;;;;;;1.60;0.70;;;;;;;25.20;53.25;99947.56;4401528;32;32993;-84
2023/07/15 04:56:49;;;;;;;0.57;0.50;;;;;;;25.19;53.97;99940.47;4418111;32;33349;-85
2023/07/15 04:59:17;;;;;;;0.40;0.40;;;;;;;24.97;53.86;99945.34;4389302;32;32604;-84
2023/07/15 05:01:44;;;;;;;0.47;0.47;;;;;;;25.05;53.62;99944.53;4431595;32;33781;-85
2023/07/15 05:04:12;;;;;;;0.45;0.45;;;;;;;25.32;53.40;99945.47;4409197;32;33693;-84
2023/07/15 05:06:40;;;;;;;0.52;0.50;;;;;;;25.34;52.90;99946.16;4421019;32;33810;-84
2023/07/15 05:09:07;;;;;;;0.52;0.52;;;;;;;25.59;51.89;99949.84;4408536;32;33673;-85
2023/07/15 05:11:35;;;;;;;0.37;0.37;;;;;;;25.64;52.21;99956.50;4401891;32;34914;-85
2023/07/15 05:14:03;;;;;;;1.75;1.27;;;;;;;25.36;52.10;99953.09;4402025;32;33831;-84
2023/07/15 05:16:31;;;;;;;1.23;1.08;;;;;;;25.32;52.45;99956.28;4403065;32;33730;-84
2023/07/15 05:18:59;;;;;;;3.78;0.70;;;;;;;25.42;51.67;99954.31;4429307;32;33852;-85
2023/07/15 05:21:26;;;;;;;0.75;0.52;;;;;;;25.58;51.70;99954.41;4402750;32;33142;-84
2023/07/15 05:23:54;;;;;;;2.30;1.33;;;;;;;25.62;50.82;99957.66;4409344;32;34878;-84
2023/07/15 05:26:22;;;;;;;0.57;0.57;;;;;;;25.52;51.20;99946.94;4409654;32;33831;-85
2023/07/15 05:28:49;;;;;;;2.40;1.45;;;;;;;25.50;50.67;99959.78;4396720;32;34587;-85
2023/07/15 05:31:18;;;;;;;1.70;0.95;;;;;;;25.39;52.01;99957.31;4428581;32;34061;-85
2023/07/15 05:33:46;;;;;;;0.30;0.30;;;;;;;26.02;50.28;99954.34;4431800;32;32824;-84
2023/07/15 05:36:14;;;;;;;5.00;2.05;;;;;;;25.67;50.90;99966.97;4420826;32;33956;-85
2023/07/15 05:38:42;;;;;;;1.02;0.93;;;;;;;26.26;49.83;99967.97;4421320;32;34789;-85
2023/07/15 05:41:14;;;;;;;0.32;0.32;;;;;;;26.59;47.77;99968.09;4421399;32;34109;-85
2023/07/15 05:43:42;;;;;;;2.12;0.85;;;;;;;26.62;47.71;99973.16;4422476;32;34034;-85
2023/07/15 05:46:10;;;;;;;1.12;1.02;;;;;;;26.51;48.84;99976.19;4432322;32;33849;-84
2023/07/15 05:48:38;;;;;;;1.33;1.23;;;;;;;26.04;49.31;99980.22;4408317;32;33944;-84
2023/07/15 05:51:05;;;;;;;1.08;0.82;;;;;;;26.47;47.97;99975.66;4411383;32;33266;-85
2023/07/15 05:53:33;;;;;;;0.65;0.65;;;;;;;26.69;47.90;99984.19;4416235;32;32152;-85
2023/07/15 05:56:00;;;;;;;1.17;1.08;;;;;;;26.83;47.58;99969.16;4404498;32;32287;-85
2023/07/15 05:58:28;;;;;;;1.20;1.12;;;;;;;26.63;47.99;99974.84;4410919;32;33565;-85
2023/07/15 06:00:55;;;;;;;0.65;0.52;;;;;;;26.75;47.28;99970.81;4405395;32;34738;-85
2023/07/15 06:03:25;;;;;;;0.88;0.68;;;;;;;26.78;48.62;99973.22;4423634;32;33373;-85
2023/07/15 06:06:00;;;;;;;1.87;0.85;;;;;;;26.78;48.46;99981.34;4422546;32;33901;-85
2023/07/15 06:08:28;;;;;;;14.20;1.33;;;;;;;26.73;49.01;99981.00;4411338;32;34349;-85
2023/07/15 06:10:56;;;;;;;0.60;0.60;;;;;;;27.12;47.62;99980.38;4410630;32;32711;-85
2023/07/15 06:13:24;;;;;;;5.30;1.75;;;;;;;27.37;46.51;99977.66;4424303;32;33764;-85
2023/07/15 06:15:56;;;;;;;1.15;0.93;;;;;;;27.41;46.86;99979.84;4397776;32;33089;-85
2023/07/15 06:18:24;;;;;;;0.55;0.55;;;;;;;27.46;45.76;99979.34;4423401;32;33674;-85
2023/07/15 06:20:51;;;;;;;1.20;1.10;;;;;;;27.52;45.75;99973.22;4409437;32;32088;-85
2023/07/15 06:23:19;;;;;;;0.17;0.17;;;;;;;27.67;45.76;99966.06;4422716;32;33128;-85
2023/07/15 06:25:47;;;;;;;0.50;0.50;;;;;;;28.05;45.03;99969.03;4398284;32;32412;-85
2023/07/15 06:28:14;;;;;;;0.62;0.62;;;;;;;28.05;46.07;99974.44;4402945;32;33377;-85
2023/07/15 06:30:42;;;;;;;0.50;0.50;;;;;;;28.36;45.63;99979.13;4385344;32;34614;-85
2023/07/15 06:33:09;;;;;;;1.52;0.95;;;;;;;28.22;45.02;99981.50;4405579;32;32669;-85
2023/07/15 06:35:37;;;;;;;0.70;0.70;;;;;;;28.39;44.83;99967.88;4430956;32;33815;-85
2023/07/15 06:38:05;;;;;;;1.05;0.95;;;;;;;28.49;44.57;99971.25;4410308;32;32173;-85
2023/07/15 06:40:36;;;;;;;0.47;0.47;;;;;;;28.25;44.73;99973.03;4422014;32;34098;-85
2023/07/15 06:43:04;;;;;;;0.68;0.52;;;;;;;28.23;44.92;99972.34;4411969;32;33147;-85
2023/07/15 06:45:33;;;;;;;0.77;0.73;;;;;;;28.53;45.03;99973.41;4430827;32;34023;-85
2023/07/15 06:48:01;;;;;;;3.70;0.65;;;;;;;28.61;45.85;99972.50;4410962;32;32575;-85
2023/07/15 06:50:29;;;;;;;2.03;1.17;;;;;;;28.72;45.36;99972.13;4416771;32;33213;-85
2023/07/15 06:52:57;;;;;;;0.43;0.43;;;;;;;29.12;44.70;99972.84;4422734;32;33275;-85
2023/07/15 06:55:24;;;;;;;0.50;0.50;;;;;;;29.14;43.72;99970.78;4423152;32;34016;-85
2023/07/15 06:57:52;;;;;;;0.30;0.30;;;;;;;29.11;44.26;99973.03;4423119;32;34980;-85
2023/07/15 07:00:21;;;;;;;0.45;0.45;;;;;;;29.42;42.82;99970.19;4410519;32;34191;-86
2023/07/15 07:02:49;;;;;;;1.20;1.10;;;;;;;29.37;44.75;99978.06;4415390;32;34284;-86
2023/07/15 07:05:19;;;;;;;2.62;1.50;;;;;;;29.62;42.66;99978.69;4409845;32;33894;-86
2023/07/15 07:07:47;;;;;;;0.85;0.85;;;;;;;29.63;42.80;99981.25;4430572;32;34744;-85
2023/07/15 07:10:15;;;;;;;0.95;0.85;;;;;;;29.90;42.47;99968.84;4413760;32;32578;-85
2023/07/15 07:12:42;;;;;;;0.75;0.70;;;;;;;29.90;42.67;99970.75;4410368;32;33831;-85
2023/07/15 07:15:10;;;;;;;0.30;0.30;;;;;;;30.35;41.80;99967.81;4423404;32;34712;-86
2023/07/15 07:17:38;;;;;;;0.55;0.55;;;;;;;30.15;42.29;99964.03;4422227;32;33955;-86
2023/07/15 07:20:07;;;;;;;2.05;0.65;;;;;;;30.65;42.51;99956.84;4422391;32;33358;-86
2023/07/15 07:22:35;;;;;;;0.30;0.30;;;;;;;30.30;41.45;99970.28;4423041;32;33324;-86
2023/07/15 07:25:04;;;;;;;0.85;0.85;;;;;;;30.33;41.42;99969.87;4416745;32;33835;-85
2023/07/15 07:27:31;;;;;;;0.35;0.35;;;;;;;30.50;40.82;99972.38;4409987;32;33901;-86
2023/07/15 07:29:59;;;;;;;0.40;0.40;;;;;;;30.24;42.46;99978.34;4410730;32;34805;-86
2023/07/15 07:32:27;;;;;;;0.50;0.50;;;;;;;30.34;41.29;99970.75;4409817;32;32864;-86
2023/07/15 07:34:55;;;;;;;0.30;0.30;;;;;;;30.59;40.66;99973.97;4429507;32;33564;-86
2023/07/15 07:37:23;;;;;;;1.52;1.42;;;;;;;31.06;40.25;99969.87;4408935;32;33916;-86
2023/07/15 07:39:51;;;;;;;0.70;0.70;;;;;;;31.09;41.28;99964.00;4409388;32;34330;-86
2023/07/15 07:42:19;;;;;;;0.50;0.50;;;;;;;31.01;40.21;99973.19;4410132;32;33192;-85
2023/07/15 07:44:47;;;;;;;3.15;2.10;;;;;;;31.21;40.29;99975.25;4430210;32;35082;-86
2023/07/15 07:47:14;;;;;;;3.35;1.42;;;;;;;31.19;39.91;99975.41;4422374;32;33597;-86
2023/07/15 07:49:42;;;;;;;6.50;0.73;;;;;;;31.26;40.38;99975.50;4429027;32;34458;-86
2023/07/15 07:52:10;;;;;;;0.47;0.47;;;;;;;31.23;40.59;99971.25;4409254;32;33514;-86
2023/07/15 07:54:39;;;;;;;1.95;0.68;;;;;;;30.73;41.14;99967.66;4397916;32;32669;-86
2023/07/15 07:57:08;;;;;;;0.20;0.20;;;;;;;31.29;40.85;99965.06;4410713;32;34007;-86
2023/07/15 07:59:35;;;;;;;0.55;0.47;;;;;;;31.45;40.15;99960.34;4421724;32;34288;-86
2023/07/15 08:02:03;;;;;;;1.98;1.08;;;;;;;31.47;40.29;99963.72;4409271;32;33742;-86
2023/07/15 08:04:31;;;;;;;0.82;0.82;;;;;;;31.68;40.02;99960.94;4422869;32;34578;-85
2023/07/15 08:07:00;;;;;;;0.43;0.40;;;;;;;31.70;40.26;99964.28;4409036;32;34061;-86
2023/07/15 08:09:29;;;;;;;0.22;0.22;;;;;;;31.98;39.75;99964.28;4427533;32;34086;-86
2023/07/15 08:11:58;;;;;;;0.52;0.35;;;;;;;32.30;38.87;99957.28;4410660;32;33655;-86
2023/07/15 08:14:25;;;;;;;1.65;1.55;;;;;;;32.26;38.54;99961.47;4409626;32;32236;-86
2023/07/15 08:16:53;;;;;;;1.05;0.77;;;;;;;31.91;38.94;99962.59;4400745;32;33995;-86
2023/07/15 08:19:21;;;;;;;4.22;1.17;;;;;;;32.07;38.61;99962.22;4403666;32;31884;-86
2023/07/15 08:21:48;;;;;;;1.12;1.02;;;;;;;31.80;39.25;99961.19;4410304;32;32603;-86
2023/07/15 08:24:16;;;;;;;0.40;0.40;;;;;;;31.96;39.89;99971.00;4410909;32;34939;-86
2023/07/15 08:26:44;;;;;;;0.60;0.60;;;;;;;32.39;38.58;99965.34;4396230;32;33731;-85
2023/07/15 08:29:11;;;;;;;0.62;0.62;;;;;;;32.33;39.76;99967.81;4431222;32;34180;-86
2023/07/15 08:31:39;;;;;;;4.12;0.82;;;;;;;32.44;39.22;99965.56;4427789;32;33204;-86
2023/07/15 08:34:07;;;;;;;0.85;0.82;;;;;;;32.40;38.54;99973.34;4423694;32;33540;-86
2023/07/15 08:36:36;;;;;;;0.55;0.43;;;;;;;32.33;38.39;99965.09;4401261;32;32721;-87
2023/07/15 08:39:03;;;;;;;1.00;0.50;;;;;;;32.25;38.37;99961.69;4409525;32;32988;-86
2023/07/15 08:41:31;;;;;;;0.50;0.50;;;;;;;32.82;38.48;99958.53;4408415;32;33079;-86
2023/07/15 08:43:59;;;;;;;0.80;0.80;;;;;;;33.03;38.53;99962.16;4407775;32;32988;-85
2023/07/15 08:46:29;;;;;;;1.27;0.80;;;;;;;33.17;38.33;99954.78;4422174;32;34026;-86
2023/07/15 08:48:59;;;;;;;1.15;1.05;;;;;;;32.56;39.21;99961.19;4407571;32;34208;-86
2023/07/15 08:51:31;;;;;;;2.12;1.35;;;;;;;33.01;38.66;99965.09;4403103;32;34127;-86
2023/07/15 08:54:01;;;;;;;0.98;0.80;;;;;;;33.45;38.38;99969.13;4397303;32;32595;-87
2023/07/15 08:56:34;;;;;;;1.95;1.75;;;;;;;32.83;38.08;99968.41;4409755;32;33889;-86
2023/07/15 08:59:06;;;;;;;0.82;0.62;;;;;;;33.34;38.04;99962.37;4398429;32;33478;-86
2023/07/15 09:01:36;;;;;;;1.45;0.90;;;;;;;33.73;37.13;99959.81;4392974;32;33056;-87
2023/07/15 09:04:05;;;;;;;1.17;1.12;;;;;;;32.92;37.73;99949.94;4373685;32;35195;-86
2023/07/15 09:06:33;;;;;;;1.08;1.00;;;;;;;32.79;38.25;99964.41;4395854;32;33276;-86
2023/07/15 09:09:01;;;;;;;0.80;0.80;;;;;;;32.96;37.50;99962.16;4410025;32;34119;-86
2023/07/15 09:11:42;;;;;;;0.90;0.75;;;;;;;32.57;38.58;99966.47;4408328;32;33868;-86
2023/07/15 09:14:17;;;;;;;1.45;1.17;;;;;;;32.99;39.88;99975.38;4417075;32;33903;-86
2023/07/15 09:16:45;;;;;;;1.00;0.98;;;;;;;32.41;38.63;99968.72;4409008;32;34698;-86
2023/07/15 09:19:12;;;;;;;1.23;1.12;;;;;;;32.19;39.13;99967.94;4397533;32;32669;-86
2023/07/15 09:21:51;;;;;;;0.65;0.65;;;;;;;32.53;38.66;99967.09;4416974;32;33690;-87
2023/07/15 09:24:19;;;;;;;0.50;0.50;;;;;;;32.73;38.89;99976.16;4415166;32;32986;-86
2023/07/15 09:26:48;;;;;;;0.95;0.90;;;;;;;32.36;38.76;99970.16;4408898;32;33748;-86
2023/07/15 09:29:19;;;;;;;0.85;0.77;;;;;;;32.37;39.16;99974.56;4397561;32;34182;-86
2023/07/15 09:31:47;;;;;;;1.40;0.77;;;;;;;32.83;39.02;99978.50;4421847;32;33998;-86
2023/07/15 09:34:18;;;;;;;0.50;0.50;;;;;;;32.39;39.52;99976.28;4426961;32;33152;-86
2023/07/15 09:36:46;;;;;;;4.00;0.93;;;;;;;32.79;38.66;99978.06;4397661;32;32914;-86
2023/07/15 09:39:15;;;;;;;1.12;1.02;;;;;;;33.08;38.78;99970.56;4400523;32;33313;-87
2023/07/15 09:41:42;;;;;;;0.45;0.45;;;;;;;33.14;38.58;99969.75;4396194;32;34129;-86
2023/07/15 09:44:11;;;;;;;1.90;0.95;;;;;;;33.47;38.37;99963.44;4402377;32;33527;-86
2023/07/15 09:46:40;;;;;;;0.90;0.90;;;;;;;33.11;36.98;99975.63;4415327;32;32411;-86
2023/07/15 09:49:07;;;;;;;2.08;0.95;;;;;;;33.21;36.51;99965.09;4397074;32;33221;-87
2023/07/15 09:51:35;;;;;;;1.90;0.65;;;;;;;33.79;36.30;99968.00;4415448;32;34021;-86
2023/07/15 09:54:03;;;;;;;0.55;0.55;;;;;;;33.79;35.86;99962.53;4420861;32;34040;-86
2023/07/15 09:56:35;;;;;;;0.43;0.40;;;;;;;33.56;36.56;99965.72;4404247;32;33698;-87
2023/07/15 09:59:18;;;;;;;0.75;0.75;;;;;;;34.31;36.20;99960.69;4424554;32;34165;-86
2023/07/15 10:02:04;;;;;;;1.48;1.23;;;;;;;34.20;35.38;99958.66;4409080;32;34037;-86
2023/07/15 10:04:41;;;;;;;0.75;0.75;;;;;;;34.30;36.13;99955.44;4401829;32;32849;-87
2023/07/15 10:07:09;;;;;;;0.35;0.30;;;;;;;33.30;36.69;99946.59;4411909;32;34653;-86
2023/07/15 10:09:37;;;;;;;0.45;0.32;;;;;;;33.70;35.80;99941.91;4422583;32;33994;-86
2023/07/15 10:12:06;;;;;;;0.75;0.75;;;;;;;34.15;37.29;99952.97;4421018;32;35304;-86
2023/07/15 10:14:33;;;;;;;1.02;0.93;;;;;;;34.24;35.41;99943.47;4409208;32;33960;-87
2023/07/15 10:17:09;;;;;;;0.70;0.70;;;;;;;34.34;36.13;99943.84;4395247;32;33286;-86
2023/07/15 10:19:39;;;;;;;1.20;1.10;;;;;;;34.07;36.44;99943.09;4408376;32;34186;-86
2023/07/15 10:22:08;;;;;;;0.40;0.40;;;;;;;34.00;35.61;99939.56;4402638;32;31921;-87
2023/07/15 10:24:39;;;;;;;0.50;0.50;;;;;;;34.46;36.00;99940.41;4405784;32;33609;-87
2023/07/15 10:27:10;;;;;;;0.82;0.82;;;;;;;34.66;35.97;99941.16;4410446;32;32570;-86
2023/07/15 10:29:39;;;;;;;0.35;0.35;;;;;;;33.99;35.58;99943.31;4421258;32;33866;-86
2023/07/15 10:32:08;;;;;;;0.62;0.62;;;;;;;34.08;35.31;99954.91;4409292;32;33666;-86
2023/07/15 10:34:38;;;;;;;0.50;0.50;;;;;;;34.14;35.39;99945.81;4421207;32;34619;-86
2023/07/15 10:37:08;;;;;;;0.50;0.50;;;;;;;34.12;34.70;99939.72;4429396;32;33929;-87
2023/07/15 10:39:37;;;;;;;0.60;0.60;;;;;;;33.96;35.42;99945.69;4410787;32;32660;-86
2023/07/15 10:42:13;;;;;;;0.40;0.40;;;;;;;34.47;36.18;99937.47;4403821;32;32546;-86
2023/07/15 10:44:46;;;;;;;0.50;0.50;;;;;;;34.64;35.03;99940.53;4424053;32;33515;-87
2023/07/15 10:47:15;;;;;;;1.67;0.47;;;;;;;34.53;34.28;99942.06;4410688;32;34263;-86
2023/07/15 10:49:44;;;;;;;0.32;0.32;;;;;;;35.03;35.86;99935.84;4421728;32;32335;-86
2023/07/15 10:52:18;;;;;;;0.50;0.47;;;;;;;34.73;35.34;99938.38;4416333;32;33229;-87
2023/07/15 10:54:47;;;;;;;0.15;0.15;;;;;;;34.73;33.57;99938.38;4427778;32;33818;-87
2023/07/15 10:57:16;;;;;;;0.50;0.50;;;;;;;34.52;34.22;99937.66;4412646;32;33939;-87
2023/07/15 10:59:45;;;;;;;0.37;0.37;;;;;;;34.71;33.50;99935.84;4417096;32;31826;-87
2023/07/15 11:02:13;;;;;;;1.33;1.23;;;;;;;35.09;33.26;99934.97;4412182;32;33514;-87
2023/07/15 11:04:40;;;;;;;0.90;0.90;;;;;;;34.82;33.65;99932.37;4411725;32;34657;-87
2023/07/15 11:07:12;;;;;;;1.05;1.05;;;;;;;35.02;34.07;99931.44;4422366;32;34088;-87
2023/07/15 11:09:40;;;;;;;0.68;0.57;;;;;;;35.23;33.35;99928.31;4416598;32;34796;-87
2023/07/15 11:12:09;;;;;;;0.43;0.43;;;;;;;34.66;33.66;99924.72;4411645;32;34265;-86
2023/07/15 11:14:40;;;;;;;0.70;0.70;;;;;;;34.85;33.50;99922.88;4423731;32;33831;-87
2023/07/15 11:17:08;;;;;;;0.70;0.70;;;;;;;34.24;34.20;99923.44;4413341;32;34053;-87
2023/07/15 11:19:36;;;;;;;0.40;0.40;;;;;;;34.46;34.56;99915.75;4408242;32;33662;-86
2023/07/15 11:22:09;;;;;;;0.77;0.77;;;;;;;34.43;34.08;99918.91;4404772;32;34361;-86
2023/07/15 11:24:37;;;;;;;0.57;0.47;;;;;;;34.50;34.12;99917.00;4416617;32;34146;-87
2023/07/15 11:27:05;;;;;;;0.65;0.65;;;;;;;34.24;34.88;99910.56;4412990;32;33630;-86
2023/07/15 11:29:33;;;;;;;0.57;0.57;;;;;;;35.02;34.68;99907.56;4410659;32;34809;-87
2023/07/15 11:32:02;;;;;;;0.47;0.35;;;;;;;34.60;34.82;99909.94;4391959;32;33640;-87
2023/07/15 11:34:29;;;;;;;1.05;0.95;;;;;;;35.27;33.07;99896.56;4417745;32;32972;-87
2023/07/15 11:37:02;;;;;;;1.15;0.75;;;;;;;35.00;33.26;99903.38;4417715;32;32472;-87
2023/07/15 11:39:30;;;;;;;0.62;0.57;;;;;;;35.03;33.78;99908.41;4430545;32;33863;-87
2023/07/15 11:41:58;;;;;;;1.67;1.58;;;;;;;35.11;33.23;99900.72;4406022;32;33621;-86
2023/07/15 11:44:25;;;;;;;1.15;1.05;;;;;;;35.26;32.61;99897.62;4412372;32;33540;-87